Time;durP1;ratioP1;P1;durP2;ratioP2;P2;SDS_P1;SDS_P2;PMS_P1;PMS_P2;Temp;Humidity;BMP_temperature;BMP_pressure;BME280_temperature;BME280_humidity;BME280_pressure;Samples;Min_cycle;Max_cycle;Signal;HPM_P1;HPM_P2
2022/08/14 00:00:10;;;;;;;15.70;11.78;;;;;;;22.34;78.30;99456.84;1732071;82;21037;-82
2022/08/14 00:02:39;;;;;;;19.92;11.55;;;;;;;22.28;78.62;99470.03;1745825;82;21110;-83
2022/08/14 00:05:08;;;;;;;12.40;10.98;;;;;;;22.30;78.63;99465.72;1734395;82;21083;-81
2022/08/14 00:07:34;;;;;;;12.98;11.65;;;;;;;22.35;77.39;99476.63;1731826;82;21666;-77
2022/08/14 00:10:07;;;;;;;14.28;11.83;;;;;;;22.31;77.66;99458.72;1726165;82;21526;-79
2022/08/14 00:12:36;;;;;;;12.50;11.27;;;;;;;22.28;77.47;99462.45;1723998;82;21062;-77
2022/08/14 00:15:09;;;;;;;14.25;12.20;;;;;;;22.25;77.43;99468.36;1734634;82;21095;-79
2022/08/14 00:17:35;;;;;;;12.93;11.63;;;;;;;22.20;77.56;99460.98;1731745;82;21310;-77
2022/08/14 00:20:07;;;;;;;13.15;11.68;;;;;;;22.23;77.71;99465.05;1728889;82;21062;-77
2022/08/14 00:22:34;;;;;;;12.85;11.30;;;;;;;22.29;77.96;99457.31;1722913;82;21010;-80
2022/08/14 00:25:00;;;;;;;14.47;11.43;;;;;;;22.25;77.96;99465.66;1733938;82;21118;-80
2022/08/14 00:27:28;;;;;;;15.53;11.70;;;;;;;22.21;78.30;99461.78;1735020;82;21243;-81
2022/08/14 00:29:55;;;;;;;15.88;12.03;;;;;;;22.15;78.22;99467.13;1728241;82;21069;-80
2022/08/14 00:32:21;;;;;;;14.58;11.75;;;;;;;22.13;77.64;99464.39;1736427;82;21163;-80
2022/08/14 00:34:48;;;;;;;12.40;10.85;;;;;;;22.10;77.37;99467.08;1727557;82;21039;-78
2022/08/14 00:37:14;;;;;;;11.90;10.65;;;;;;;22.15;77.13;99471.18;1720520;82;21083;-79
2022/08/14 00:39:42;;;;;;;12.20;10.80;;;;;;;22.24;76.82;99474.28;1731628;82;20861;-76
2022/08/14 00:42:09;;;;;;;15.32;11.70;;;;;;;22.23;77.04;99460.45;1733864;82;21067;-80
2022/08/14 00:44:35;;;;;;;13.00;10.53;;;;;;;22.21;76.68;99463.14;1725855;82;21090;-81
2022/08/14 00:47:07;;;;;;;13.38;11.12;;;;;;;22.18;76.54;99459.87;1718994;82;21047;-81
2022/08/14 00:49:32;;;;;;;14.28;12.40;;;;;;;22.17;76.18;99457.41;1719823;82;21046;-81
2022/08/14 00:51:59;;;;;;;11.55;10.45;;;;;;;22.12;76.21;99460.87;1720725;82;21134;-82
2022/08/14 00:54:25;;;;;;;11.50;10.40;;;;;;;22.13;76.42;99448.97;1721049;82;21050;-79
2022/08/14 00:56:52;;;;;;;13.43;11.28;;;;;;;22.20;76.29;99452.86;1725619;82;21012;-82
2022/08/14 00:59:18;;;;;;;12.75;10.80;;;;;;;22.18;76.55;99460.41;1721257;82;21098;-80
2022/08/14 01:01:45;;;;;;;14.98;12.00;;;;;;;22.12;76.70;99459.52;1730062;82;21064;-82
2022/08/14 01:04:11;;;;;;;11.50;10.15;;;;;;;22.05;76.18;99452.13;1729980;82;21878;-79
2022/08/14 01:06:38;;;;;;;14.13;11.97;;;;;;;21.98;75.84;99448.26;1716456;82;21049;-79
2022/08/14 01:09:04;;;;;;;11.90;10.70;;;;;;;21.95;76.16;99447.94;1724218;82;21539;-80
2022/08/14 01:11:31;;;;;;;13.00;10.15;;;;;;;21.96;76.34;99445.50;1723819;82;21506;-76
2022/08/14 01:13:59;;;;;;;12.33;11.12;;;;;;;22.02;76.41;99443.69;1734409;82;21023;-81
2022/08/14 01:16:29;;;;;;;11.85;10.65;;;;;;;21.98;76.60;99441.50;1730881;82;21256;-78
2022/08/14 01:21:41;;;;;;;16.07;11.08;;;;;;;21.91;76.29;99445.45;1718366;82;21058;-78
2022/08/14 01:24:09;;;;;;;11.80;10.65;;;;;;;21.87;76.52;99451.08;1734484;82;21071;-79
2022/08/14 01:26:35;;;;;;;11.38;10.25;;;;;;;21.82;76.99;99454.52;1734600;82;21106;-77
2022/08/14 01:29:04;;;;;;;10.78;9.63;;;;;;;21.86;77.14;99450.78;1725578;82;21768;-78
2022/08/14 01:31:33;;;;;;;16.87;11.25;;;;;;;21.93;76.99;99453.59;1732184;82;21088;-80
2022/08/14 01:34:02;;;;;;;12.18;10.55;;;;;;;21.92;77.18;99449.78;1723882;82;21082;-78
2022/08/14 01:36:35;;;;;;;12.75;11.45;;;;;;;21.87;77.12;99453.78;1722567;82;21035;-78
2022/08/14 01:38:59;;;;;;;14.93;10.95;;;;;;;21.83;77.28;99456.16;1732926;82;21116;-80
2022/08/14 01:41:26;;;;;;;12.85;11.30;;;;;;;21.79;77.38;99450.44;1723192;82;21164;-82
2022/08/14 01:44:02;;;;;;;20.08;11.00;;;;;;;21.76;77.35;99450.92;1720524;82;21077;-78
2022/08/14 01:46:29;;;;;;;;;;;;;;;21.81;77.35;99442.08;1717046;82;21062;-80
2022/08/14 01:48:56;;;;;;;11.88;10.75;;;;;;;21.90;76.38;99443.80;1730486;82;20855;-82
2022/08/14 01:51:23;;;;;;;14.28;10.72;;;;;;;21.87;76.90;99447.84;1734621;82;21077;-80
2022/08/14 01:53:53;;;;;;;15.43;10.95;;;;;;;21.83;77.37;99447.21;1730445;82;21729;-83
2022/08/14 01:56:20;;;;;;;14.20;11.15;;;;;;;21.79;77.65;99449.08;1734336;82;20988;-80
2022/08/14 01:58:48;;;;;;;13.13;10.78;;;;;;;21.78;77.92;99454.19;1730729;82;21109;-79
2022/08/14 02:01:18;;;;;;;11.88;10.30;;;;;;;21.84;77.92;99454.27;1719673;82;21006;-80
2022/08/14 02:03:45;;;;;;;12.13;10.85;;;;;;;21.92;77.74;99452.48;1725534;81;21014;-82
2022/08/14 02:06:12;;;;;;;11.85;10.78;;;;;;;21.92;77.95;99443.02;1724550;82;21761;-81
2022/08/14 02:08:40;;;;;;;12.50;11.20;;;;;;;21.89;78.22;99451.11;1733962;82;21114;-82
2022/08/14 02:11:21;;;;;;;12.58;11.38;;;;;;;21.87;78.04;99449.73;1725861;82;21117;-83
2022/08/14 02:13:59;;;;;;;13.25;11.57;;;;;;;21.84;77.86;99441.56;1726303;82;21022;-82
2022/08/14 02:16:31;;;;;;;14.10;11.33;;;;;;;21.88;78.02;99452.70;1732799;82;21092;-83
2022/08/14 02:18:59;;;;;;;14.38;11.88;;;;;;;21.91;77.94;99450.32;1722756;82;21969;-82
2022/08/14 02:21:28;;;;;;;14.93;11.22;;;;;;;21.86;78.03;99445.37;1724465;82;21065;-81
2022/08/14 02:23:55;;;;;;;12.15;11.03;;;;;;;21.82;77.68;99447.75;1729930;82;21039;-82
2022/08/14 02:26:28;;;;;;;13.65;11.38;;;;;;;21.77;77.84;99442.30;1734743;82;21067;-82
2022/08/14 02:29:02;;;;;;;12.07;10.72;;;;;;;21.71;77.74;99446.81;1732534;82;21045;-83
2022/08/14 02:31:32;;;;;;;13.50;10.45;;;;;;;21.72;77.75;99440.32;1733610;82;21347;-83
2022/08/14 02:34:01;;;;;;;11.25;10.18;;;;;;;21.75;77.53;99450.65;1730464;82;21046;-80
2022/08/14 02:36:28;;;;;;;15.28;10.18;;;;;;;21.68;77.41;99451.34;1718870;83;21030;-80
2022/08/14 02:38:56;;;;;;;14.25;10.58;;;;;;;21.61;77.33;99454.75;1688622;84;21538;-82
2022/08/14 02:41:22;;;;;;;13.48;10.63;;;;;;;21.54;77.42;99456.28;1733243;82;21057;-80
2022/08/14 02:43:49;;;;;;;11.20;9.95;;;;;;;21.47;77.31;99460.22;1724898;82;21544;-77
2022/08/14 02:46:16;;;;;;;10.10;9.10;;;;;;;21.48;77.24;99451.03;1730413;82;21008;-77
2022/08/14 02:48:42;;;;;;;11.18;9.90;;;;;;;21.53;76.81;99455.98;1674023;84;21118;-77
2022/08/14 02:51:11;;;;;;;15.00;9.70;;;;;;;21.49;76.57;99452.69;1737749;82;21065;-77
2022/08/14 02:53:43;;;;;;;15.45;11.50;;;;;;;21.44;76.60;99451.24;1726060;82;21514;-78
2022/08/14 02:56:13;;;;;;;13.35;10.82;;;;;;;21.38;76.62;99454.36;1740172;82;21267;-80
2022/08/14 02:58:39;;;;;;;11.68;10.43;;;;;;;21.33;76.96;99451.06;1704735;84;21606;-78
2022/08/14 03:01:07;;;;;;;11.60;9.55;;;;;;;21.30;77.09;99449.38;1734554;82;21054;-79
2022/08/14 03:03:36;;;;;;;12.88;9.83;;;;;;;21.32;77.22;99452.65;1734860;82;21025;-77
2022/08/14 03:06:04;;;;;;;12.50;10.13;;;;;;;21.37;77.22;99454.91;1729860;82;21050;-78
2022/08/14 03:08:32;;;;;;;14.43;9.75;;;;;;;21.34;77.55;99457.27;1742468;82;21117;-82
2022/08/14 03:11:05;;;;;;;11.63;9.80;;;;;;;21.29;77.70;99458.02;1739927;82;21070;-80
2022/08/14 03:13:34;;;;;;;12.78;10.82;;;;;;;21.24;77.88;99451.72;1741036;82;21081;-80
2022/08/14 03:16:03;;;;;;;11.25;8.75;;;;;;;21.20;77.78;99444.63;1737588;82;21074;-79
2022/08/14 03:18:30;;;;;;;12.75;9.43;;;;;;;21.24;77.52;99453.88;1741288;82;21629;-80
2022/08/14 03:20:59;;;;;;;10.15;9.13;;;;;;;21.30;77.26;99450.19;1727644;82;21721;-78
2022/08/14 03:23:26;;;;;;;13.90;11.83;;;;;;;21.29;76.71;99451.81;1734851;82;21599;-80
2022/08/14 03:25:53;;;;;;;13.45;10.03;;;;;;;21.27;76.66;99445.30;1711595;82;21061;-80
2022/08/14 03:28:23;;;;;;;13.22;10.30;;;;;;;21.25;76.77;99455.53;1738808;81;21070;-78
2022/08/14 03:30:49;;;;;;;12.58;9.73;;;;;;;21.23;76.79;99454.95;1740141;82;21035;-81
2022/08/14 03:33:16;;;;;;;10.28;8.78;;;;;;;21.22;76.71;99457.36;1729994;82;21515;-81
2022/08/14 03:35:43;;;;;;;10.80;8.80;;;;;;;21.27;76.66;99461.50;1727727;82;21050;-80
2022/08/14 03:38:11;;;;;;;16.23;10.13;;;;;;;21.36;76.27;99453.80;1740257;82;21027;-77
2022/08/14 03:40:39;;;;;;;11.73;9.40;;;;;;;21.36;76.40;99459.20;1724709;82;21078;-79
2022/08/14 03:43:08;;;;;;;10.63;9.73;;;;;;;21.37;76.33;99463.55;1719691;82;21221;-79
2022/08/14 03:45:36;;;;;;;12.40;9.78;;;;;;;21.36;76.27;99455.98;1735264;82;21111;-80
2022/08/14 03:48:14;;;;;;;10.98;8.95;;;;;;;21.37;75.94;99450.85;1731746;82;21004;-79
2022/08/14 03:50:43;;;;;;;9.88;8.85;;;;;;;21.38;76.02;99454.36;1745131;81;20979;-78
2022/08/14 03:53:11;;;;;;;9.60;8.70;;;;;;;21.46;75.78;99450.46;1731053;81;21686;-78
2022/08/14 03:55:37;;;;;;;10.75;9.40;;;;;;;21.56;75.61;99459.55;1747830;81;20998;-81
2022/08/14 03:58:08;;;;;;;11.40;8.55;;;;;;;21.55;75.32;99453.05;1754637;81;21212;-81
2022/08/14 04:00:37;;;;;;;13.20;9.40;;;;;;;21.52;75.08;99460.31;1733272;81;21518;-76
2022/08/14 04:03:06;;;;;;;12.13;9.33;;;;;;;21.49;74.70;99459.44;1755226;81;21042;-82
2022/08/14 04:05:37;;;;;;;10.78;8.73;;;;;;;21.48;74.47;99455.09;1746868;81;21547;-77
2022/08/14 04:08:07;;;;;;;12.45;9.33;;;;;;;21.45;74.49;99461.00;1751375;81;21089;-81
2022/08/14 04:10:34;;;;;;;10.82;8.58;;;;;;;21.41;74.12;99455.23;1738667;81;21129;-80
2022/08/14 04:13:01;;;;;;;9.68;8.43;;;;;;;21.46;74.17;99450.46;1749886;81;21506;-80
2022/08/14 04:15:27;;;;;;;9.55;8.43;;;;;;;21.49;74.08;99442.69;1744659;81;21501;-82
2022/08/14 04:17:57;;;;;;;9.63;8.58;;;;;;;21.47;74.37;99448.06;1755121;81;21627;-81
2022/08/14 04:20:24;;;;;;;10.93;9.83;;;;;;;21.42;74.34;99447.40;1753768;81;21022;-82
2022/08/14 04:22:51;;;;;;;10.10;9.05;;;;;;;21.36;74.46;99445.18;1753870;81;21253;-80
2022/08/14 04:25:18;;;;;;;10.28;9.13;;;;;;;21.33;74.41;99437.55;1726975;81;21518;-80
2022/08/14 04:27:45;;;;;;;12.20;9.43;;;;;;;21.31;74.48;99433.47;1747815;81;21534;-78
2022/08/14 04:30:12;;;;;;;8.90;8.03;;;;;;;21.28;74.76;99437.46;1749143;81;21010;-77
2022/08/14 04:32:38;;;;;;;10.35;9.35;;;;;;;21.35;74.67;99430.02;1753885;81;21049;-78
2022/08/14 04:35:05;;;;;;;10.75;9.00;;;;;;;21.42;74.39;99436.59;1748415;81;22309;-78
2022/08/14 04:45:47;;;;;;;11.48;10.30;;;;;;;21.32;74.53;99447.25;1752223;81;20998;-78
2022/08/14 04:48:16;;;;;;;10.55;8.95;;;;;;;21.30;74.73;99447.48;1751911;81;21325;-77
2022/08/14 04:50:47;;;;;;;9.65;8.53;;;;;;;21.35;74.84;99448.12;1747745;81;21047;-78
2022/08/14 04:53:19;;;;;;;10.43;9.10;;;;;;;21.42;74.78;99437.94;1725136;81;21434;-76
2022/08/14 04:55:47;;;;;;;12.55;9.18;;;;;;;21.41;74.64;99441.19;1730336;82;21515;-77
2022/08/14 04:58:17;;;;;;;11.38;9.70;;;;;;;21.41;74.62;99442.53;1728149;82;21149;-80
2022/08/14 05:00:45;;;;;;;10.58;8.78;;;;;;;21.43;74.89;99438.78;1738089;80;21529;-81
2022/08/14 05:03:12;;;;;;;10.08;9.08;;;;;;;21.46;74.76;99442.36;1720855;82;21167;-77
2022/08/14 05:05:39;;;;;;;13.00;8.25;;;;;;;21.48;74.94;99437.02;1733335;82;21490;-79
2022/08/14 05:08:11;;;;;;;9.43;8.45;;;;;;;21.57;74.58;99440.09;1742067;82;21031;-80
2022/08/14 05:10:44;;;;;;;11.15;8.33;;;;;;;21.68;74.16;99440.53;1736484;82;21022;-81
2022/08/14 05:13:12;;;;;;;10.15;9.05;;;;;;;21.72;73.99;99442.21;1733781;82;21841;-78
2022/08/14 05:15:40;;;;;;;13.98;9.33;;;;;;;21.73;74.09;99443.83;1734216;82;21105;-79
2022/08/14 05:18:12;;;;;;;11.48;9.13;;;;;;;21.75;74.06;99441.70;1732198;82;21085;-79
2022/08/14 05:20:42;;;;;;;10.07;8.90;;;;;;;21.78;73.97;99442.56;1734061;82;21098;-80
2022/08/14 05:23:09;;;;;;;11.48;8.75;;;;;;;21.82;74.06;99441.00;1738982;82;21411;-81
2022/08/14 05:25:36;;;;;;;9.88;8.68;;;;;;;21.89;73.87;99443.00;1740538;82;21010;-79
2022/08/14 05:28:18;;;;;;;9.88;8.93;;;;;;;22.01;73.44;99444.23;1723681;82;21065;-81
2022/08/14 05:30:46;;;;;;;9.98;9.08;;;;;;;22.03;73.22;99438.03;1734531;82;21026;-79
2022/08/14 05:33:15;;;;;;;10.13;8.90;;;;;;;22.04;73.23;99437.48;1740281;82;21093;-80
2022/08/14 05:35:45;;;;;;;13.68;9.55;;;;;;;22.06;72.93;99434.84;1733127;82;21015;-80
2022/08/14 05:38:13;;;;;;;9.80;8.63;;;;;;;22.10;73.01;99435.97;1725005;82;21278;-81
2022/08/14 05:40:40;;;;;;;9.85;8.85;;;;;;;22.16;72.99;99434.14;1738284;82;21064;-75
2022/08/14 05:43:07;;;;;;;9.20;7.87;;;;;;;22.22;73.07;99427.72;1726420;82;21514;-75
2022/08/14 05:45:34;;;;;;;10.18;8.98;;;;;;;22.29;72.98;99431.61;1727050;82;21062;-77
2022/08/14 05:48:02;;;;;;;9.25;8.35;;;;;;;22.44;72.66;99434.48;1731143;82;21544;-78
2022/08/14 05:50:29;;;;;;;9.18;8.25;;;;;;;22.52;72.34;99437.28;1736789;82;21109;-78
2022/08/14 05:52:57;;;;;;;10.08;8.50;;;;;;;22.54;72.20;99433.27;1741490;82;21069;-79
2022/08/14 05:55:24;;;;;;;9.83;8.78;;;;;;;22.57;71.92;99440.86;1737165;82;21027;-80
2022/08/14 05:57:58;;;;;;;10.98;9.48;;;;;;;22.62;71.81;99439.27;1739875;82;21030;-77
2022/08/14 06:00:32;;;;;;;15.25;9.80;;;;;;;22.66;72.47;99435.02;1732447;82;21221;-83
2022/08/14 06:02:59;;;;;;;10.28;8.43;;;;;;;22.68;72.37;99435.03;1741562;82;21086;-83
2022/08/14 06:05:25;;;;;;;11.63;9.20;;;;;;;22.72;72.58;99433.98;1739685;82;21609;-80
2022/08/14 06:07:52;;;;;;;11.68;8.55;;;;;;;22.75;72.71;99432.10;1735471;77;20922;-83
2022/08/14 06:10:18;;;;;;;11.10;9.13;;;;;;;22.87;72.52;99438.20;1734545;82;21054;-83
2022/08/14 06:12:45;;;;;;;10.38;9.38;;;;;;;23.01;72.13;99433.72;1728133;82;21073;-85
2022/08/14 06:15:12;;;;;;;10.08;9.08;;;;;;;23.05;71.95;99433.51;1719565;82;21146;-84
2022/08/14 06:17:46;;;;;;;13.05;11.73;;;;;;;23.09;71.76;99425.95;1737364;82;21112;-86
2022/08/14 06:20:13;;;;;;;10.08;8.95;;;;;;;23.12;71.75;99422.73;1723498;81;20912;-83
2022/08/14 06:22:40;;;;;;;11.28;9.78;;;;;;;23.19;71.75;99423.86;1723292;78;20992;-85
2022/08/14 06:25:08;;;;;;;14.38;10.90;;;;;;;23.22;71.65;99426.58;1736385;82;21093;-83
2022/08/14 06:27:42;;;;;;;11.63;10.43;;;;;;;23.27;71.58;99424.73;1731907;82;21138;-84
2022/08/14 06:30:11;;;;;;;12.33;10.13;;;;;;;23.30;71.57;99422.06;1730659;82;22046;-84
2022/08/14 06:32:38;;;;;;;12.55;9.93;;;;;;;23.35;71.50;99424.78;1742780;82;21019;-81
2022/08/14 06:35:10;;;;;;;12.20;9.38;;;;;;;23.47;71.40;99424.59;1740672;82;21082;-82
2022/08/14 06:37:49;;;;;;;12.18;9.90;;;;;;;23.58;70.98;99418.16;1731182;82;21071;-79
2022/08/14 06:40:21;;;;;;;11.35;10.08;;;;;;;23.61;71.21;99419.02;1721001;82;21149;-78
2022/08/14 06:42:48;;;;;;;15.88;10.13;;;;;;;23.65;70.97;99417.95;1726571;82;21049;-77
2022/08/14 06:45:15;;;;;;;11.22;9.85;;;;;;;23.68;70.94;99420.95;1731385;82;21041;-77
2022/08/14 06:47:43;;;;;;;11.28;10.13;;;;;;;23.72;70.79;99420.70;1742321;82;21018;-77
2022/08/14 06:50:15;;;;;;;11.28;10.08;;;;;;;23.73;70.77;99419.61;1743062;82;21083;-78
2022/08/14 06:52:42;;;;;;;11.33;10.23;;;;;;;23.77;70.70;99424.52;1737015;82;21232;-79
2022/08/14 06:55:10;;;;;;;12.25;11.00;;;;;;;23.80;70.64;99426.72;1724722;82;21034;-78
2022/08/14 06:57:40;;;;;;;14.78;9.68;;;;;;;23.82;70.79;99428.11;1738167;82;21030;-76
2022/08/14 07:00:12;;;;;;;11.73;9.38;;;;;;;23.92;70.99;99424.63;1743460;81;21044;-79
2022/08/14 07:08:17;;;;;;;11.30;9.85;;;;;;;24.12;70.64;99420.64;1743008;82;21543;-78
2022/08/14 07:10:48;;;;;;;17.90;10.32;;;;;;;24.22;70.39;99424.48;1736297;82;21110;-79
2022/08/14 07:13:17;;;;;;;12.68;9.83;;;;;;;24.26;70.57;99425.58;1732582;82;21155;-78
2022/08/14 07:15:49;;;;;;;10.82;9.93;;;;;;;24.31;70.00;99429.13;1734304;82;21006;-76
2022/08/14 07:18:24;;;;;;;10.98;10.00;;;;;;;24.33;69.92;99432.94;1732371;82;21248;-78
2022/08/14 07:20:52;;;;;;;12.20;10.65;;;;;;;24.36;69.69;99435.13;1739134;82;21039;-79
2022/08/14 07:23:19;;;;;;;10.55;9.40;;;;;;;24.42;69.53;99437.32;1740074;82;21033;-77
2022/08/14 07:25:46;;;;;;;10.40;9.40;;;;;;;24.46;69.03;99435.16;1738796;82;21164;-77
2022/08/14 07:28:26;;;;;;;10.20;9.20;;;;;;;24.52;68.75;99437.37;1738192;82;21041;-78
2022/08/14 07:30:57;;;;;;;10.48;9.58;;;;;;;24.55;68.52;99436.02;1744098;82;21998;-79
2022/08/14 07:33:28;;;;;;;10.53;9.40;;;;;;;24.60;68.10;99433.32;1732519;82;21001;-80
2022/08/14 07:35:58;;;;;;;10.68;9.60;;;;;;;24.67;68.17;99426.55;1732064;82;21561;-79
2022/08/14 07:38:26;;;;;;;11.00;10.00;;;;;;;24.77;67.87;99427.66;1738665;82;21578;-79
2022/08/14 07:40:53;;;;;;;10.35;9.40;;;;;;;24.85;67.51;99429.28;1738376;82;21549;-78
2022/08/14 07:43:20;;;;;;;10.53;9.55;;;;;;;24.97;67.24;99424.94;1737961;82;21148;-79
2022/08/14 07:45:48;;;;;;;10.40;8.85;;;;;;;25.11;66.74;99421.14;1720835;82;21041;-79
2022/08/14 07:48:14;;;;;;;9.78;8.98;;;;;;;25.27;65.98;99422.00;1739356;82;21042;-79
2022/08/14 07:50:40;;;;;;;12.05;8.63;;;;;;;25.46;65.69;99420.89;1737803;82;21024;-80
2022/08/14 07:53:07;;;;;;;9.40;8.50;;;;;;;25.70;64.99;99423.27;1732436;82;21597;-77
2022/08/14 07:55:34;;;;;;;13.50;8.60;;;;;;;25.93;64.00;99431.95;1727581;82;21299;-78
2022/08/14 07:58:02;;;;;;;11.28;7.67;;;;;;;26.13;63.59;99427.52;1704573;82;21053;-80
2022/08/14 08:00:30;;;;;;;10.40;9.30;;;;;;;26.32;63.87;99426.35;1734571;82;21014;-79
2022/08/14 08:03:00;;;;;;;10.93;9.83;;;;;;;26.54;63.46;99425.42;1735035;82;21073;-79
2022/08/14 08:07:46;;;;;;;10.32;9.33;;;;;;;27.01;62.60;99419.13;1871491;76;22535;-78
2022/08/14 08:10:31;;;;;;;10.40;9.40;;;;;;;27.10;62.35;99418.80;1830086;78;20843;-79
2022/08/14 08:13:12;;;;;;;11.45;10.10;;;;;;;27.23;61.83;99415.38;1805445;78;21537;-81
2022/08/14 08:15:42;;;;;;;11.08;9.90;;;;;;;27.35;61.47;99418.31;1808257;78;20978;-79
2022/08/14 08:18:10;;;;;;;11.00;10.00;;;;;;;27.43;61.81;99413.62;1803988;77;21014;-81
2022/08/14 08:20:45;;;;;;;10.72;9.20;;;;;;;27.51;61.85;99410.25;1826613;78;21595;-79
2022/08/14 08:23:13;;;;;;;10.10;9.23;;;;;;;27.59;61.50;99406.89;1826343;78;20965;-78
2022/08/14 08:25:42;;;;;;;12.63;9.23;;;;;;;27.66;60.89;99403.80;1823262;77;22377;-78
2022/08/14 08:28:15;;;;;;;11.03;9.83;;;;;;;27.69;60.63;99404.60;1825007;78;20978;-79
2022/08/14 08:30:50;;;;;;;9.58;8.58;;;;;;;27.77;61.00;99407.24;1824164;77;20994;-80
2022/08/14 08:33:19;;;;;;;10.63;9.13;;;;;;;27.88;60.63;99410.16;1825659;78;21021;-79
2022/08/14 08:35:46;;;;;;;11.63;8.68;;;;;;;27.96;60.27;99409.50;1805492;78;21084;-79
2022/08/14 08:38:16;;;;;;;9.70;8.78;;;;;;;28.04;60.47;99412.94;1823760;78;21214;-80
2022/08/14 08:40:47;;;;;;;14.63;8.95;;;;;;;28.10;59.31;99418.35;1828669;77;21236;-79
2022/08/14 08:43:25;;;;;;;9.05;8.03;;;;;;;28.14;58.39;99412.56;1828397;78;20983;-79
2022/08/14 08:46:13;;;;;;;9.55;8.70;;;;;;;28.19;58.10;99416.61;1810624;77;21056;-79
2022/08/14 08:48:55;;;;;;;13.68;8.28;;;;;;;28.24;58.18;99409.16;1824523;78;21006;-80
2022/08/14 08:51:39;;;;;;;13.40;8.43;;;;;;;28.33;57.73;99403.84;1820909;77;21078;-79
2022/08/14 08:54:12;;;;;;;18.80;8.95;;;;;;;28.46;57.94;99405.03;1805326;77;21591;-80
2022/08/14 08:56:48;;;;;;;9.95;9.00;;;;;;;28.74;58.19;99405.20;1813142;77;21305;-78
2022/08/14 08:59:29;;;;;;;10.28;9.35;;;;;;;28.99;57.59;99397.14;1820944;77;21080;-75
2022/08/14 09:02:05;;;;;;;12.73;8.58;;;;;;;29.18;56.70;99400.67;1809353;77;21120;-76
2022/08/14 09:04:38;;;;;;;11.40;8.40;;;;;;;29.32;56.32;99401.25;1749583;80;21219;-76
2022/08/14 09:07:05;;;;;;;10.30;8.13;;;;;;;29.38;55.37;99389.11;1754513;79;21061;-78
2022/08/14 09:09:32;;;;;;;9.30;8.50;;;;;;;29.47;55.37;99390.03;1755462;81;21017;-79
2022/08/14 09:12:00;;;;;;;9.43;7.87;;;;;;;29.65;55.20;99384.24;1762461;81;22145;-78
2022/08/14 09:14:30;;;;;;;8.70;7.78;;;;;;;29.88;54.97;99380.24;1765731;80;21050;-80
2022/08/14 09:16:58;;;;;;;8.25;7.50;;;;;;;30.12;54.30;99369.07;1762610;79;21200;-77
2022/08/14 09:19:26;;;;;;;9.70;8.15;;;;;;;30.36;53.51;99373.73;1775390;79;21003;-76
2022/08/14 09:21:53;;;;;;;11.70;7.80;;;;;;;30.66;53.60;99367.87;1766450;80;20998;-77
2022/08/14 09:24:20;;;;;;;9.50;8.48;;;;;;;30.87;52.46;99378.59;1762766;80;21096;-76
2022/08/14 09:26:46;;;;;;;10.15;8.48;;;;;;;31.00;52.16;99376.91;1760086;80;21112;-80
2022/08/14 09:29:13;;;;;;;9.20;8.30;;;;;;;30.99;51.79;99372.56;1766127;79;21289;-78
2022/08/14 09:31:45;;;;;;;15.10;8.65;;;;;;;30.88;52.17;99370.59;1763221;78;21043;-78
2022/08/14 09:34:41;;;;;;;14.60;8.60;;;;;;;30.81;52.47;99359.82;1750691;80;21061;-79
2022/08/14 09:37:28;;;;;;;8.35;7.45;;;;;;;31.03;52.26;99365.33;1748551;81;21013;-81
2022/08/14 09:40:16;;;;;;;12.55;8.78;;;;;;;31.57;51.15;99363.92;1755191;79;21065;-79
2022/08/14 09:42:58;;;;;;;12.70;8.83;;;;;;;32.23;50.31;99363.14;1767588;80;21869;-78
2022/08/14 09:45:35;;;;;;;10.58;7.53;;;;;;;32.90;49.04;99365.98;1765275;79;21073;-82
2022/08/14 09:48:09;;;;;;;7.92;7.20;;;;;;;33.56;47.61;99356.57;1768488;80;21066;-82
2022/08/14 09:50:51;;;;;;;9.60;7.05;;;;;;;34.12;46.91;99366.09;1744788;80;21014;-82
2022/08/14 09:53:42;;;;;;;11.03;7.30;;;;;;;34.60;45.91;99352.35;1784991;80;21277;-81
2022/08/14 09:56:11;;;;;;;8.60;7.75;;;;;;;35.00;45.71;99344.35;1763535;78;21059;-85
2022/08/14 09:58:43;;;;;;;8.25;7.37;;;;;;;35.59;44.32;99358.94;1777173;79;21033;-86
2022/08/14 10:01:17;;;;;;;9.08;7.10;;;;;;;36.01;43.23;99347.66;1750126;82;20987;-85
2022/08/14 10:03:55;;;;;;;9.45;8.40;;;;;;;36.27;42.81;99348.64;1760126;80;21287;-86
2022/08/14 10:06:26;;;;;;;7.95;6.83;;;;;;;36.52;42.16;99347.97;1759716;79;21006;-85
2022/08/14 10:09:02;;;;;;;7.22;6.55;;;;;;;36.80;42.06;99347.20;1761060;78;26408;-86
2022/08/14 10:11:36;;;;;;;7.30;6.70;;;;;;;37.14;41.89;99353.25;1760943;81;21052;-84
2022/08/14 10:14:23;;;;;;;7.50;6.47;;;;;;;37.60;41.13;99356.41;1758431;81;21083;-85
2022/08/14 10:16:53;;;;;;;8.70;7.35;;;;;;;38.01;40.29;99347.83;1748389;80;21003;-83
2022/08/14 10:19:28;;;;;;;10.25;7.20;;;;;;;38.40;39.58;99354.22;1790758;78;20986;-84
2022/08/14 10:22:07;;;;;;;8.98;7.00;;;;;;;38.60;39.39;99357.05;1784047;78;21409;-85
2022/08/14 10:24:45;;;;;;;7.75;6.97;;;;;;;38.72;38.72;99359.66;1778449;80;21030;-85
2022/08/14 10:27:17;;;;;;;9.55;6.50;;;;;;;38.70;38.04;99367.55;1777139;79;21070;-83
2022/08/14 10:29:53;;;;;;;7.87;6.65;;;;;;;38.49;38.34;99374.23;1779644;79;21513;-86
2022/08/14 10:32:21;;;;;;;19.57;7.40;;;;;;;38.13;38.41;99356.03;1774029;80;21025;-84
2022/08/14 10:34:48;;;;;;;8.83;7.30;;;;;;;37.62;39.26;99362.98;1768802;80;21102;-84
2022/08/14 10:37:17;;;;;;;7.75;6.78;;;;;;;37.10;39.80;99360.63;1780145;80;21021;-84
2022/08/14 10:39:57;;;;;;;14.78;6.70;;;;;;;36.66;40.10;99353.13;1780856;80;21026;-85
2022/08/14 10:42:27;;;;;;;15.00;7.35;;;;;;;36.39;40.67;99360.23;1779535;80;21033;-84
2022/08/14 10:44:54;;;;;;;9.60;6.28;;;;;;;36.21;41.01;99359.72;1757825;80;21056;-86
2022/08/14 10:47:21;;;;;;;10.13;6.97;;;;;;;36.17;40.99;99360.99;1777003;79;21062;-84
2022/08/14 10:49:59;;;;;;;7.87;6.78;;;;;;;36.31;41.00;99359.81;1779912;80;21595;-85
2022/08/14 10:52:30;;;;;;;7.95;6.25;;;;;;;36.46;40.91;99363.22;1778736;80;21007;-85
2022/08/14 10:55:15;;;;;;;8.33;6.80;;;;;;;36.69;40.55;99362.70;1767871;80;21178;-83
2022/08/14 10:57:55;;;;;;;17.27;7.45;;;;;;;37.00;40.51;99355.84;1762903;79;21115;-84
2022/08/14 11:00:27;;;;;;;12.07;6.40;;;;;;;37.39;40.02;99353.30;1790905;80;21232;-85
2022/08/14 11:03:02;;;;;;;14.00;6.40;;;;;;;37.84;39.35;99360.11;1792015;80;21021;-85
2022/08/14 11:05:46;;;;;;;8.95;6.53;;;;;;;38.18;38.96;99360.51;1785334;80;21034;-85
2022/08/14 11:08:14;;;;;;;10.45;6.12;;;;;;;38.55;38.20;99361.70;1795886;79;21012;-85
2022/08/14 11:10:57;;;;;;;7.67;6.33;;;;;;;39.03;37.64;99352.33;1767871;79;21093;-85
2022/08/14 11:13:28;;;;;;;9.53;7.00;;;;;;;39.41;37.17;99344.44;1760707;79;21935;-85
2022/08/14 11:15:59;;;;;;;7.50;6.90;;;;;;;39.75;37.04;99345.17;1780389;79;21112;-86
2022/08/14 11:18:26;;;;;;;14.00;7.47;;;;;;;39.97;36.58;99347.69;1775611;80;21081;-84
2022/08/14 11:20:54;;;;;;;9.10;6.45;;;;;;;39.95;36.41;99348.09;1780057;80;21097;-85
2022/08/14 11:23:32;;;;;;;10.40;6.67;;;;;;;39.70;36.67;99342.94;1766454;80;21008;-85
2022/08/14 11:25:59;;;;;;;7.12;6.42;;;;;;;39.56;36.93;99344.09;1796834;76;21085;-86
2022/08/14 11:28:33;;;;;;;7.10;6.40;;;;;;;39.63;37.22;99341.43;1763545;78;21021;-86
2022/08/14 11:31:00;;;;;;;10.43;6.12;;;;;;;39.79;36.98;99344.04;1798983;78;21135;-85
2022/08/14 11:33:30;;;;;;;11.97;6.72;;;;;;;39.92;36.42;99340.48;1789858;78;21170;-87
2022/08/14 11:35:59;;;;;;;6.95;6.35;;;;;;;39.85;36.15;99337.57;1766804;78;21028;-86
2022/08/14 11:38:27;;;;;;;7.28;6.53;;;;;;;39.78;36.29;99337.48;1766655;81;21148;-87
2022/08/14 11:40:57;;;;;;;8.10;7.33;;;;;;;39.69;36.03;99343.30;1796315;79;21051;-84
2022/08/14 11:43:24;;;;;;;6.33;5.58;;;;;;;39.62;36.50;99346.79;1796731;79;21078;-87
2022/08/14 11:45:51;;;;;;;9.48;6.30;;;;;;;39.59;36.03;99338.39;1797151;78;21055;-85
2022/08/14 11:48:24;;;;;;;8.15;5.75;;;;;;;39.57;36.02;99345.70;1798017;79;21178;-85
2022/08/14 11:50:54;;;;;;;8.20;5.80;;;;;;;39.55;36.21;99341.71;1791521;78;21009;-86
2022/08/14 11:53:29;;;;;;;6.67;6.03;;;;;;;39.71;36.10;99345.91;1795003;80;21053;-88
2022/08/14 11:55:57;;;;;;;7.87;6.00;;;;;;;39.88;36.02;99352.16;1794613;79;21104;-87